sensor_id;sensor_type;location;lat;lon;timestamp;P1;durP1;ratioP1;P2;durP2;ratioP2
12663;SDS011;6396;58.490;15.528;2023-06-01T00:01:58;3.17;;;2.27;;
12663;SDS011;6396;58.490;15.528;2023-06-01T00:04:25;3.10;;;2.17;;
12663;SDS011;6396;58.490;15.528;2023-06-01T00:06:53;2.50;;;2.20;;
12663;SDS011;6396;58.490;15.528;2023-06-01T00:09:21;2.70;;;2.20;;
12663;SDS011;6396;58.490;15.528;2023-06-01T00:11:48;3.30;;;2.10;;
12663;SDS011;6396;58.490;15.528;2023-06-01T00:14:14;2.30;;;2.10;;
12663;SDS011;6396;58.490;15.528;2023-06-01T00:16:41;2.27;;;2.07;;
12663;SDS011;6396;58.490;15.528;2023-06-01T00:19:10;4.33;;;2.10;;
12663;SDS011;6396;58.490;15.528;2023-06-01T00:21:36;4.03;;;2.30;;
12663;SDS011;6396;58.490;15.528;2023-06-01T00:24:05;2.40;;;2.03;;
12663;SDS011;6396;58.490;15.528;2023-06-01T00:26:33;2.37;;;2.10;;
12663;SDS011;6396;58.490;15.528;2023-06-01T00:29:00;2.77;;;1.93;;
12663;SDS011;6396;58.490;15.528;2023-06-01T00:31:26;2.53;;;1.87;;
12663;SDS011;6396;58.490;15.528;2023-06-01T00:33:53;3.40;;;2.10;;
12663;SDS011;6396;58.490;15.528;2023-06-01T00:36:20;3.53;;;1.97;;
12663;SDS011;6396;58.490;15.528;2023-06-01T00:38:47;2.80;;;1.87;;
12663;SDS011;6396;58.490;15.528;2023-06-01T00:41:15;1.87;;;1.57;;
12663;SDS011;6396;58.490;15.528;2023-06-01T00:43:42;1.60;;;1.50;;
12663;SDS011;6396;58.490;15.528;2023-06-01T00:46:09;1.40;;;1.30;;
12663;SDS011;6396;58.490;15.528;2023-06-01T00:48:36;1.50;;;1.40;;
12663;SDS011;6396;58.490;15.528;2023-06-01T00:51:03;1.60;;;1.23;;
12663;SDS011;6396;58.490;15.528;2023-06-01T00:53:30;3.50;;;1.40;;
12663;SDS011;6396;58.490;15.528;2023-06-01T00:55:57;3.07;;;1.57;;
12663;SDS011;6396;58.490;15.528;2023-06-01T00:58:26;2.00;;;1.20;;
12663;SDS011;6396;58.490;15.528;2023-06-01T01:00:52;1.53;;;1.20;;
12663;SDS011;6396;58.490;15.528;2023-06-01T01:03:20;2.77;;;1.20;;
12663;SDS011;6396;58.490;15.528;2023-06-01T01:05:51;3.27;;;1.20;;
12663;SDS011;6396;58.490;15.528;2023-06-01T01:08:24;1.93;;;1.10;;
12663;SDS011;6396;58.490;15.528;2023-06-01T01:10:59;2.93;;;1.20;;
12663;SDS011;6396;58.490;15.528;2023-06-01T01:13:36;1.30;;;1.00;;
12663;SDS011;6396;58.490;15.528;2023-06-01T01:16:07;1.10;;;1.00;;
12663;SDS011;6396;58.490;15.528;2023-06-01T01:18:42;0.90;;;0.90;;
12663;SDS011;6396;58.490;15.528;2023-06-01T01:21:19;1.90;;;1.00;;
12663;SDS011;6396;58.490;15.528;2023-06-01T01:24:04;3.70;;;0.93;;
12663;SDS011;6396;58.490;15.528;2023-06-01T01:26:52;1.00;;;0.90;;
12663;SDS011;6396;58.490;15.528;2023-06-01T01:29:24;1.87;;;0.87;;
12663;SDS011;6396;58.490;15.528;2023-06-01T01:31:52;1.73;;;1.00;;
12663;SDS011;6396;58.490;15.528;2023-06-01T01:34:22;2.33;;;0.90;;
12663;SDS011;6396;58.490;15.528;2023-06-01T01:36:52;0.80;;;0.80;;
12663;SDS011;6396;58.490;15.528;2023-06-01T01:39:19;1.47;;;0.83;;
12663;SDS011;6396;58.490;15.528;2023-06-01T01:41:46;1.13;;;0.63;;
12663;SDS011;6396;58.490;15.528;2023-06-01T01:44:13;1.00;;;0.90;;
12663;SDS011;6396;58.490;15.528;2023-06-01T01:46:44;0.80;;;0.80;;
12663;SDS011;6396;58.490;15.528;2023-06-01T01:49:18;1.77;;;0.80;;
12663;SDS011;6396;58.490;15.528;2023-06-01T01:51:52;3.53;;;0.83;;
12663;SDS011;6396;58.490;15.528;2023-06-01T01:54:24;1.10;;;1.00;;
12663;SDS011;6396;58.490;15.528;2023-06-01T01:56:53;1.67;;;0.80;;
12663;SDS011;6396;58.490;15.528;2023-06-01T01:59:23;1.27;;;0.73;;
12663;SDS011;6396;58.490;15.528;2023-06-01T02:01:53;1.53;;;0.70;;
12663;SDS011;6396;58.490;15.528;2023-06-01T02:04:21;0.80;;;0.80;;
12663;SDS011;6396;58.490;15.528;2023-06-01T02:06:48;1.53;;;0.70;;
12663;SDS011;6396;58.490;15.528;2023-06-01T02:09:14;1.60;;;0.90;;
12663;SDS011;6396;58.490;15.528;2023-06-01T02:11:41;0.87;;;0.87;;
12663;SDS011;6396;58.490;15.528;2023-06-01T02:14:08;1.27;;;0.90;;
12663;SDS011;6396;58.490;15.528;2023-06-01T02:16:35;0.70;;;0.70;;
12663;SDS011;6396;58.490;15.528;2023-06-01T02:19:04;0.80;;;0.80;;
12663;SDS011;6396;58.490;15.528;2023-06-01T02:21:31;0.70;;;0.70;;
12663;SDS011;6396;58.490;15.528;2023-06-01T02:23:58;0.77;;;0.73;;
12663;SDS011;6396;58.490;15.528;2023-06-01T02:26:31;0.70;;;0.70;;
12663;SDS011;6396;58.490;15.528;2023-06-01T02:28:58;0.80;;;0.80;;
12663;SDS011;6396;58.490;15.528;2023-06-01T02:31:27;4.47;;;0.87;;
12663;SDS011;6396;58.490;15.528;2023-06-01T02:33:54;0.70;;;0.60;;
12663;SDS011;6396;58.490;15.528;2023-06-01T02:36:22;1.13;;;0.70;;
12663;SDS011;6396;58.490;15.528;2023-06-01T02:38:50;1.03;;;0.80;;
12663;SDS011;6396;58.490;15.528;2023-06-01T02:41:17;1.03;;;0.80;;
12663;SDS011;6396;58.490;15.528;2023-06-01T02:43:43;0.90;;;0.90;;
12663;SDS011;6396;58.490;15.528;2023-06-01T02:46:10;2.43;;;0.90;;
12663;SDS011;6396;58.490;15.528;2023-06-01T02:48:37;4.60;;;0.73;;
12663;SDS011;6396;58.490;15.528;2023-06-01T02:51:04;0.80;;;0.80;;
12663;SDS011;6396;58.490;15.528;2023-06-01T02:53:33;0.70;;;0.70;;
12663;SDS011;6396;58.490;15.528;2023-06-01T02:56:00;1.00;;;0.60;;
12663;SDS011;6396;58.490;15.528;2023-06-01T02:58:27;0.60;;;0.60;;
12663;SDS011;6396;58.490;15.528;2023-06-01T03:00:55;1.67;;;0.70;;
12663;SDS011;6396;58.490;15.528;2023-06-01T03:03:23;1.00;;;0.80;;
12663;SDS011;6396;58.490;15.528;2023-06-01T03:05:50;2.23;;;0.80;;
12663;SDS011;6396;58.490;15.528;2023-06-01T03:08:17;4.27;;;0.70;;
12663;SDS011;6396;58.490;15.528;2023-06-01T03:10:45;1.90;;;0.47;;
12663;SDS011;6396;58.490;15.528;2023-06-01T03:13:12;1.20;;;0.60;;
12663;SDS011;6396;58.490;15.528;2023-06-01T03:15:39;1.70;;;0.70;;
12663;SDS011;6396;58.490;15.528;2023-06-01T03:18:06;1.60;;;0.70;;
12663;SDS011;6396;58.490;15.528;2023-06-01T03:20:33;1.67;;;1.00;;
12663;SDS011;6396;58.490;15.528;2023-06-01T03:23:00;0.70;;;0.70;;
12663;SDS011;6396;58.490;15.528;2023-06-01T03:25:27;2.43;;;0.70;;
12663;SDS011;6396;58.490;15.528;2023-06-01T03:27:55;0.70;;;0.70;;
12663;SDS011;6396;58.490;15.528;2023-06-01T03:30:22;1.43;;;0.93;;
12663;SDS011;6396;58.490;15.528;2023-06-01T03:32:48;1.13;;;0.83;;
12663;SDS011;6396;58.490;15.528;2023-06-01T03:35:15;0.70;;;0.70;;
12663;SDS011;6396;58.490;15.528;2023-06-01T03:37:43;2.00;;;0.80;;
12663;SDS011;6396;58.490;15.528;2023-06-01T03:40:10;0.60;;;0.60;;
12663;SDS011;6396;58.490;15.528;2023-06-01T03:42:37;1.20;;;0.83;;
12663;SDS011;6396;58.490;15.528;2023-06-01T03:45:08;1.17;;;0.90;;
12663;SDS011;6396;58.490;15.528;2023-06-01T03:47:35;0.60;;;0.60;;
12663;SDS011;6396;58.490;15.528;2023-06-01T03:50:03;0.80;;;0.63;;
12663;SDS011;6396;58.490;15.528;2023-06-01T03:52:32;0.93;;;0.83;;
12663;SDS011;6396;58.490;15.528;2023-06-01T03:55:00;0.87;;;0.80;;
12663;SDS011;6396;58.490;15.528;2023-06-01T03:57:29;0.70;;;0.70;;
12663;SDS011;6396;58.490;15.528;2023-06-01T03:59:57;1.93;;;0.80;;
12663;SDS011;6396;58.490;15.528;2023-06-01T04:02:25;0.97;;;0.83;;
12663;SDS011;6396;58.490;15.528;2023-06-01T04:04:53;2.17;;;1.00;;
12663;SDS011;6396;58.490;15.528;2023-06-01T04:07:20;0.90;;;0.80;;
12663;SDS011;6396;58.490;15.528;2023-06-01T04:09:47;1.07;;;0.80;;
12663;SDS011;6396;58.490;15.528;2023-06-01T04:12:14;1.23;;;0.90;;
12663;SDS011;6396;58.490;15.528;2023-06-01T04:14:41;0.80;;;0.80;;
12663;SDS011;6396;58.490;15.528;2023-06-01T04:17:08;1.33;;;0.90;;
12663;SDS011;6396;58.490;15.528;2023-06-01T04:19:37;0.73;;;0.73;;
12663;SDS011;6396;58.490;15.528;2023-06-01T04:22:04;0.57;;;0.57;;
12663;SDS011;6396;58.490;15.528;2023-06-01T04:24:31;1.33;;;0.80;;
12663;SDS011;6396;58.490;15.528;2023-06-01T04:26:59;1.17;;;0.80;;
12663;SDS011;6396;58.490;15.528;2023-06-01T04:29:27;1.47;;;0.80;;
12663;SDS011;6396;58.490;15.528;2023-06-01T04:31:54;2.00;;;0.80;;
12663;SDS011;6396;58.490;15.528;2023-06-01T04:34:24;0.70;;;0.70;;
12663;SDS011;6396;58.490;15.528;2023-06-01T04:36:53;1.70;;;0.70;;
12663;SDS011;6396;58.490;15.528;2023-06-01T04:39:20;0.83;;;0.83;;
12663;SDS011;6396;58.490;15.528;2023-06-01T04:41:47;0.87;;;0.80;;
12663;SDS011;6396;58.490;15.528;2023-06-01T04:44:14;0.90;;;0.90;;
12663;SDS011;6396;58.490;15.528;2023-06-01T04:46:41;1.00;;;0.90;;
12663;SDS011;6396;58.490;15.528;2023-06-01T04:49:09;0.80;;;0.70;;
12663;SDS011;6396;58.490;15.528;2023-06-01T04:51:37;1.13;;;0.90;;
12663;SDS011;6396;58.490;15.528;2023-06-01T04:54:06;1.20;;;0.87;;
12663;SDS011;6396;58.490;15.528;2023-06-01T04:56:34;0.90;;;0.80;;
12663;SDS011;6396;58.490;15.528;2023-06-01T04:59:01;1.00;;;0.93;;
12663;SDS011;6396;58.490;15.528;2023-06-01T05:01:30;2.50;;;0.70;;
12663;SDS011;6396;58.490;15.528;2023-06-01T05:03:58;2.07;;;0.87;;
12663;SDS011;6396;58.490;15.528;2023-06-01T05:06:25;1.80;;;0.90;;
12663;SDS011;6396;58.490;15.528;2023-06-01T05:08:52;2.87;;;1.10;;
12663;SDS011;6396;58.490;15.528;2023-06-01T05:11:21;1.80;;;0.97;;
12663;SDS011;6396;58.490;15.528;2023-06-01T05:13:49;0.87;;;0.87;;
12663;SDS011;6396;58.490;15.528;2023-06-01T05:16:26;0.80;;;0.80;;
12663;SDS011;6396;58.490;15.528;2023-06-01T05:18:54;1.57;;;0.90;;
12663;SDS011;6396;58.490;15.528;2023-06-01T05:21:35;0.80;;;0.80;;
12663;SDS011;6396;58.490;15.528;2023-06-01T05:24:13;1.03;;;0.90;;
12663;SDS011;6396;58.490;15.528;2023-06-01T05:26:41;1.53;;;0.90;;
12663;SDS011;6396;58.490;15.528;2023-06-01T05:29:08;1.13;;;1.00;;
12663;SDS011;6396;58.490;15.528;2023-06-01T05:31:35;1.43;;;0.80;;
12663;SDS011;6396;58.490;15.528;2023-06-01T05:34:02;0.80;;;0.80;;
12663;SDS011;6396;58.490;15.528;2023-06-01T05:36:29;0.83;;;0.80;;
12663;SDS011;6396;58.490;15.528;2023-06-01T05:38:58;2.20;;;1.10;;
12663;SDS011;6396;58.490;15.528;2023-06-01T05:41:24;4.23;;;0.93;;
12663;SDS011;6396;58.490;15.528;2023-06-01T05:43:53;1.70;;;1.00;;
12663;SDS011;6396;58.490;15.528;2023-06-01T05:46:20;1.60;;;1.10;;
12663;SDS011;6396;58.490;15.528;2023-06-01T05:48:47;0.83;;;0.80;;
12663;SDS011;6396;58.490;15.528;2023-06-01T05:51:14;1.13;;;1.03;;
12663;SDS011;6396;58.490;15.528;2023-06-01T05:53:40;1.10;;;1.00;;
12663;SDS011;6396;58.490;15.528;2023-06-01T05:56:07;2.47;;;0.83;;
12663;SDS011;6396;58.490;15.528;2023-06-01T05:58:34;0.70;;;0.70;;
12663;SDS011;6396;58.490;15.528;2023-06-01T06:01:02;0.90;;;0.90;;
12663;SDS011;6396;58.490;15.528;2023-06-01T06:03:30;2.27;;;1.00;;
12663;SDS011;6396;58.490;15.528;2023-06-01T06:05:56;1.37;;;0.90;;
12663;SDS011;6396;58.490;15.528;2023-06-01T06:08:23;1.87;;;0.70;;
12663;SDS011;6396;58.490;15.528;2023-06-01T06:10:50;3.97;;;1.10;;
12663;SDS011;6396;58.490;15.528;2023-06-01T06:13:17;1.17;;;1.07;;
12663;SDS011;6396;58.490;15.528;2023-06-01T06:15:44;3.10;;;1.10;;
12663;SDS011;6396;58.490;15.528;2023-06-01T06:18:12;0.90;;;0.90;;
12663;SDS011;6396;58.490;15.528;2023-06-01T06:20:39;1.93;;;0.90;;
12663;SDS011;6396;58.490;15.528;2023-06-01T06:23:05;0.93;;;0.90;;
12663;SDS011;6396;58.490;15.528;2023-06-01T06:25:32;1.07;;;0.80;;
12663;SDS011;6396;58.490;15.528;2023-06-01T06:28:01;1.67;;;1.00;;
12663;SDS011;6396;58.490;15.528;2023-06-01T06:30:29;1.47;;;0.73;;
12663;SDS011;6396;58.490;15.528;2023-06-01T06:32:55;0.73;;;0.73;;
12663;SDS011;6396;58.490;15.528;2023-06-01T06:35:23;0.90;;;0.70;;
12663;SDS011;6396;58.490;15.528;2023-06-01T06:37:50;0.97;;;0.90;;
12663;SDS011;6396;58.490;15.528;2023-06-01T06:40:17;3.83;;;0.90;;
12663;SDS011;6396;58.490;15.528;2023-06-01T06:42:45;0.90;;;0.90;;
12663;SDS011;6396;58.490;15.528;2023-06-01T06:45:12;0.87;;;0.80;;
12663;SDS011;6396;58.490;15.528;2023-06-01T06:47:39;1.27;;;1.07;;
12663;SDS011;6396;58.490;15.528;2023-06-01T06:50:07;0.80;;;0.80;;
12663;SDS011;6396;58.490;15.528;2023-06-01T06:52:36;0.90;;;0.83;;
12663;SDS011;6396;58.490;15.528;2023-06-01T06:55:02;1.70;;;0.83;;
12663;SDS011;6396;58.490;15.528;2023-06-01T06:57:30;0.93;;;0.80;;
12663;SDS011;6396;58.490;15.528;2023-06-01T06:59:58;3.97;;;1.10;;
12663;SDS011;6396;58.490;15.528;2023-06-01T07:02:25;0.90;;;0.90;;
12663;SDS011;6396;58.490;15.528;2023-06-01T07:04:52;2.83;;;1.10;;
12663;SDS011;6396;58.490;15.528;2023-06-01T07:07:19;1.13;;;0.70;;
12663;SDS011;6396;58.490;15.528;2023-06-01T07:09:47;1.17;;;1.00;;
12663;SDS011;6396;58.490;15.528;2023-06-01T07:12:14;1.13;;;0.80;;
12663;SDS011;6396;58.490;15.528;2023-06-01T07:14:41;2.40;;;1.00;;
12663;SDS011;6396;58.490;15.528;2023-06-01T07:17:07;0.77;;;0.77;;
12663;SDS011;6396;58.490;15.528;2023-06-01T07:19:34;1.00;;;0.80;;
12663;SDS011;6396;58.490;15.528;2023-06-01T07:22:01;0.80;;;0.80;;
12663;SDS011;6396;58.490;15.528;2023-06-01T07:24:28;0.80;;;0.80;;
12663;SDS011;6396;58.490;15.528;2023-06-01T07:26:56;1.73;;;0.90;;
12663;SDS011;6396;58.490;15.528;2023-06-01T07:29:23;4.03;;;1.00;;
12663;SDS011;6396;58.490;15.528;2023-06-01T07:31:51;1.10;;;1.00;;
12663;SDS011;6396;58.490;15.528;2023-06-01T07:34:18;1.63;;;0.87;;
12663;SDS011;6396;58.490;15.528;2023-06-01T07:36:45;1.90;;;0.80;;
12663;SDS011;6396;58.490;15.528;2023-06-01T07:39:12;1.70;;;1.00;;
12663;SDS011;6396;58.490;15.528;2023-06-01T07:41:40;1.97;;;0.80;;
12663;SDS011;6396;58.490;15.528;2023-06-01T07:44:09;1.87;;;0.90;;
12663;SDS011;6396;58.490;15.528;2023-06-01T07:46:35;0.67;;;0.67;;
12663;SDS011;6396;58.490;15.528;2023-06-01T07:49:02;1.40;;;0.80;;
12663;SDS011;6396;58.490;15.528;2023-06-01T07:51:29;1.17;;;0.87;;
12663;SDS011;6396;58.490;15.528;2023-06-01T07:53:56;0.63;;;0.63;;
12663;SDS011;6396;58.490;15.528;2023-06-01T07:56:25;0.70;;;0.70;;
12663;SDS011;6396;58.490;15.528;2023-06-01T07:58:51;1.07;;;0.90;;
12663;SDS011;6396;58.490;15.528;2023-06-01T08:01:20;1.67;;;0.93;;
12663;SDS011;6396;58.490;15.528;2023-06-01T08:03:46;1.37;;;0.90;;
12663;SDS011;6396;58.490;15.528;2023-06-01T08:06:14;1.27;;;0.80;;
12663;SDS011;6396;58.490;15.528;2023-06-01T08:08:41;0.87;;;0.83;;
12663;SDS011;6396;58.490;15.528;2023-06-01T08:11:08;1.90;;;1.00;;
12663;SDS011;6396;58.490;15.528;2023-06-01T08:13:35;0.70;;;0.70;;
12663;SDS011;6396;58.490;15.528;2023-06-01T08:16:03;3.10;;;1.10;;
12663;SDS011;6396;58.490;15.528;2023-06-01T08:18:31;2.13;;;1.10;;
12663;SDS011;6396;58.490;15.528;2023-06-01T08:20:58;2.40;;;0.90;;
12663;SDS011;6396;58.490;15.528;2023-06-01T08:23:25;1.53;;;0.87;;
12663;SDS011;6396;58.490;15.528;2023-06-01T08:25:52;0.90;;;0.90;;
12663;SDS011;6396;58.490;15.528;2023-06-01T08:28:19;3.33;;;1.33;;
12663;SDS011;6396;58.490;15.528;2023-06-01T08:30:46;1.07;;;0.97;;
12663;SDS011;6396;58.490;15.528;2023-06-01T08:33:12;3.13;;;1.23;;
12663;SDS011;6396;58.490;15.528;2023-06-01T08:35:41;1.47;;;0.90;;
12663;SDS011;6396;58.490;15.528;2023-06-01T08:38:08;1.40;;;0.90;;
12663;SDS011;6396;58.490;15.528;2023-06-01T08:40:35;0.90;;;0.90;;
12663;SDS011;6396;58.490;15.528;2023-06-01T08:43:04;1.30;;;1.20;;
12663;SDS011;6396;58.490;15.528;2023-06-01T08:45:38;0.90;;;0.90;;
12663;SDS011;6396;58.490;15.528;2023-06-01T08:48:07;1.20;;;1.10;;
12663;SDS011;6396;58.490;15.528;2023-06-01T08:50:35;1.30;;;1.20;;
12663;SDS011;6396;58.490;15.528;2023-06-01T08:53:03;1.03;;;0.90;;
12663;SDS011;6396;58.490;15.528;2023-06-01T08:55:31;0.90;;;0.90;;
12663;SDS011;6396;58.490;15.528;2023-06-01T08:57:57;1.10;;;1.00;;
12663;SDS011;6396;58.490;15.528;2023-06-01T09:00:24;1.10;;;1.00;;
12663;SDS011;6396;58.490;15.528;2023-06-01T09:02:53;0.80;;;0.80;;
12663;SDS011;6396;58.490;15.528;2023-06-01T09:05:19;1.33;;;1.10;;
12663;SDS011;6396;58.490;15.528;2023-06-01T09:07:46;1.10;;;1.00;;
12663;SDS011;6396;58.490;15.528;2023-06-01T09:10:16;3.07;;;1.03;;
12663;SDS011;6396;58.490;15.528;2023-06-01T09:12:53;1.90;;;0.90;;
12663;SDS011;6396;58.490;15.528;2023-06-01T09:15:21;3.80;;;1.00;;
12663;SDS011;6396;58.490;15.528;2023-06-01T09:17:51;1.10;;;1.00;;
12663;SDS011;6396;58.490;15.528;2023-06-01T09:20:30;1.10;;;1.00;;
12663;SDS011;6396;58.490;15.528;2023-06-01T09:22:57;2.53;;;1.20;;
12663;SDS011;6396;58.490;15.528;2023-06-01T09:25:26;3.00;;;1.00;;
12663;SDS011;6396;58.490;15.528;2023-06-01T09:27:55;1.13;;;1.07;;
12663;SDS011;6396;58.490;15.528;2023-06-01T09:30:23;1.10;;;1.00;;
12663;SDS011;6396;58.490;15.528;2023-06-01T09:33:06;1.20;;;1.10;;
12663;SDS011;6396;58.490;15.528;2023-06-01T09:35:40;1.00;;;1.00;;
12663;SDS011;6396;58.490;15.528;2023-06-01T09:38:08;1.20;;;1.10;;
12663;SDS011;6396;58.490;15.528;2023-06-01T09:40:37;1.17;;;1.07;;
12663;SDS011;6396;58.490;15.528;2023-06-01T09:43:17;0.90;;;0.90;;
12663;SDS011;6396;58.490;15.528;2023-06-01T09:45:45;1.00;;;1.00;;
12663;SDS011;6396;58.490;15.528;2023-06-01T09:48:30;1.13;;;1.10;;
12663;SDS011;6396;58.490;15.528;2023-06-01T09:50:56;1.67;;;1.20;;
12663;SDS011;6396;58.490;15.528;2023-06-01T09:53:23;1.27;;;1.10;;
12663;SDS011;6396;58.490;15.528;2023-06-01T09:55:59;1.33;;;1.20;;
12663;SDS011;6396;58.490;15.528;2023-06-01T09:58:27;2.03;;;1.10;;
12663;SDS011;6396;58.490;15.528;2023-06-01T10:00:54;1.33;;;1.20;;
12663;SDS011;6396;58.490;15.528;2023-06-01T10:03:22;1.10;;;1.00;;
12663;SDS011;6396;58.490;15.528;2023-06-01T10:05:49;1.37;;;1.10;;
12663;SDS011;6396;58.490;15.528;2023-06-01T10:08:16;1.07;;;1.03;;
12663;SDS011;6396;58.490;15.528;2023-06-01T10:10:44;1.83;;;1.30;;
12663;SDS011;6396;58.490;15.528;2023-06-01T10:13:14;1.57;;;1.20;;
12663;SDS011;6396;58.490;15.528;2023-06-01T10:15:41;1.30;;;1.20;;
12663;SDS011;6396;58.490;15.528;2023-06-01T10:18:07;1.30;;;1.20;;
12663;SDS011;6396;58.490;15.528;2023-06-01T10:20:35;1.40;;;1.20;;
12663;SDS011;6396;58.490;15.528;2023-06-01T10:23:04;1.73;;;1.37;;
12663;SDS011;6396;58.490;15.528;2023-06-01T10:25:32;1.07;;;1.03;;
12663;SDS011;6396;58.490;15.528;2023-06-01T10:28:04;1.93;;;1.33;;
12663;SDS011;6396;58.490;15.528;2023-06-01T10:30:34;1.50;;;1.30;;
12663;SDS011;6396;58.490;15.528;2023-06-01T10:33:01;1.33;;;1.23;;
12663;SDS011;6396;58.490;15.528;2023-06-01T10:38:29;2.83;;;1.30;;
12663;SDS011;6396;58.490;15.528;2023-06-01T10:43:55;1.93;;;1.30;;
12663;SDS011;6396;58.490;15.528;2023-06-01T10:49:17;1.57;;;1.40;;
12663;SDS011;6396;58.490;15.528;2023-06-01T10:51:44;1.20;;;1.10;;
12663;SDS011;6396;58.490;15.528;2023-06-01T10:54:24;1.53;;;1.10;;
12663;SDS011;6396;58.490;15.528;2023-06-01T11:02:37;1.40;;;1.30;;
12663;SDS011;6396;58.490;15.528;2023-06-01T11:11:18;1.47;;;1.37;;
12663;SDS011;6396;58.490;15.528;2023-06-01T11:16:38;2.30;;;1.40;;
12663;SDS011;6396;58.490;15.528;2023-06-01T11:19:06;1.90;;;1.20;;
12663;SDS011;6396;58.490;15.528;2023-06-01T11:21:35;1.63;;;1.37;;
12663;SDS011;6396;58.490;15.528;2023-06-01T11:24:05;2.67;;;1.23;;
12663;SDS011;6396;58.490;15.528;2023-06-01T11:26:36;1.97;;;1.40;;
12663;SDS011;6396;58.490;15.528;2023-06-01T11:29:06;1.43;;;1.30;;
12663;SDS011;6396;58.490;15.528;2023-06-01T11:31:39;1.30;;;1.20;;
12663;SDS011;6396;58.490;15.528;2023-06-01T11:34:10;2.83;;;1.37;;
12663;SDS011;6396;58.490;15.528;2023-06-01T11:36:39;1.50;;;1.40;;
12663;SDS011;6396;58.490;15.528;2023-06-01T11:39:17;1.83;;;1.30;;
12663;SDS011;6396;58.490;15.528;2023-06-01T11:41:46;1.30;;;1.20;;
12663;SDS011;6396;58.490;15.528;2023-06-01T11:44:14;2.93;;;1.40;;
12663;SDS011;6396;58.490;15.528;2023-06-01T11:46:53;1.30;;;1.20;;
12663;SDS011;6396;58.490;15.528;2023-06-01T11:49:23;1.63;;;1.23;;
12663;SDS011;6396;58.490;15.528;2023-06-01T11:51:50;1.20;;;1.10;;
12663;SDS011;6396;58.490;15.528;2023-06-01T11:54:22;1.60;;;1.20;;
12663;SDS011;6396;58.490;15.528;2023-06-01T11:56:49;1.87;;;1.47;;
12663;SDS011;6396;58.490;15.528;2023-06-01T11:59:17;1.80;;;1.20;;
12663;SDS011;6396;58.490;15.528;2023-06-01T12:01:45;2.53;;;1.50;;
12663;SDS011;6396;58.490;15.528;2023-06-01T12:04:12;1.77;;;1.30;;
12663;SDS011;6396;58.490;15.528;2023-06-01T12:06:41;1.50;;;1.30;;
12663;SDS011;6396;58.490;15.528;2023-06-01T12:09:10;1.40;;;1.30;;
12663;SDS011;6396;58.490;15.528;2023-06-01T12:11:38;2.03;;;1.17;;
12663;SDS011;6396;58.490;15.528;2023-06-01T12:14:08;1.67;;;1.20;;
12663;SDS011;6396;58.490;15.528;2023-06-01T12:16:52;1.60;;;1.50;;
12663;SDS011;6396;58.490;15.528;2023-06-01T12:19:20;3.07;;;1.33;;
12663;SDS011;6396;58.490;15.528;2023-06-01T12:21:49;1.20;;;1.10;;
12663;SDS011;6396;58.490;15.528;2023-06-01T12:24:17;2.10;;;1.40;;
12663;SDS011;6396;58.490;15.528;2023-06-01T12:26:44;1.57;;;1.40;;
12663;SDS011;6396;58.490;15.528;2023-06-01T12:29:11;1.87;;;1.50;;
12663;SDS011;6396;58.490;15.528;2023-06-01T12:31:38;1.40;;;1.30;;
12663;SDS011;6396;58.490;15.528;2023-06-01T12:34:14;2.03;;;1.40;;
12663;SDS011;6396;58.490;15.528;2023-06-01T12:36:42;2.07;;;1.20;;
12663;SDS011;6396;58.490;15.528;2023-06-01T12:39:11;2.10;;;1.20;;
12663;SDS011;6396;58.490;15.528;2023-06-01T12:41:46;1.90;;;1.30;;
12663;SDS011;6396;58.490;15.528;2023-06-01T12:44:19;1.33;;;1.23;;
12663;SDS011;6396;58.490;15.528;2023-06-01T12:46:47;1.40;;;1.10;;
12663;SDS011;6396;58.490;15.528;2023-06-01T12:49:22;3.30;;;1.47;;
12663;SDS011;6396;58.490;15.528;2023-06-01T12:51:49;1.40;;;1.30;;
12663;SDS011;6396;58.490;15.528;2023-06-01T12:54:17;4.63;;;1.43;;
12663;SDS011;6396;58.490;15.528;2023-06-01T12:56:44;1.37;;;1.20;;
12663;SDS011;6396;58.490;15.528;2023-06-01T12:59:13;2.97;;;1.37;;
12663;SDS011;6396;58.490;15.528;2023-06-01T13:01:40;3.73;;;1.40;;
12663;SDS011;6396;58.490;15.528;2023-06-01T13:04:07;2.60;;;1.33;;
12663;SDS011;6396;58.490;15.528;2023-06-01T13:06:33;2.67;;;1.40;;
12663;SDS011;6396;58.490;15.528;2023-06-01T13:09:00;1.53;;;1.23;;
12663;SDS011;6396;58.490;15.528;2023-06-01T13:11:29;1.60;;;1.30;;
12663;SDS011;6396;58.490;15.528;2023-06-01T13:13:56;1.40;;;1.27;;
12663;SDS011;6396;58.490;15.528;2023-06-01T13:16:23;1.53;;;1.30;;
12663;SDS011;6396;58.490;15.528;2023-06-01T13:18:50;1.30;;;1.20;;
12663;SDS011;6396;58.490;15.528;2023-06-01T13:21:17;2.30;;;1.40;;
12663;SDS011;6396;58.490;15.528;2023-06-01T13:23:43;1.53;;;1.43;;
12663;SDS011;6396;58.490;15.528;2023-06-01T13:26:10;1.47;;;1.27;;
12663;SDS011;6396;58.490;15.528;2023-06-01T13:28:41;1.53;;;1.23;;
12663;SDS011;6396;58.490;15.528;2023-06-01T13:31:08;1.50;;;1.40;;
12663;SDS011;6396;58.490;15.528;2023-06-01T13:33:35;2.33;;;1.10;;
12663;SDS011;6396;58.490;15.528;2023-06-01T13:36:02;1.30;;;1.20;;
12663;SDS011;6396;58.490;15.528;2023-06-01T13:38:30;1.40;;;1.30;;
12663;SDS011;6396;58.490;15.528;2023-06-01T13:40:57;1.40;;;1.30;;
12663;SDS011;6396;58.490;15.528;2023-06-01T13:43:25;3.10;;;1.27;;
12663;SDS011;6396;58.490;15.528;2023-06-01T13:45:53;2.43;;;1.20;;
12663;SDS011;6396;58.490;15.528;2023-06-01T13:48:20;2.60;;;1.27;;
12663;SDS011;6396;58.490;15.528;2023-06-01T13:50:47;3.47;;;1.20;;
12663;SDS011;6396;58.490;15.528;2023-06-01T13:53:14;2.13;;;1.37;;
12663;SDS011;6396;58.490;15.528;2023-06-01T13:55:41;3.03;;;1.40;;
12663;SDS011;6396;58.490;15.528;2023-06-01T13:58:07;1.60;;;1.30;;
12663;SDS011;6396;58.490;15.528;2023-06-01T14:00:34;1.77;;;1.57;;
12663;SDS011;6396;58.490;15.528;2023-06-01T14:03:02;1.37;;;1.27;;
12663;SDS011;6396;58.490;15.528;2023-06-01T14:05:30;2.20;;;1.57;;
12663;SDS011;6396;58.490;15.528;2023-06-01T14:07:56;1.40;;;1.30;;
12663;SDS011;6396;58.490;15.528;2023-06-01T14:10:23;1.50;;;1.40;;
12663;SDS011;6396;58.490;15.528;2023-06-01T14:12:50;1.60;;;1.20;;
12663;SDS011;6396;58.490;15.528;2023-06-01T14:15:17;2.47;;;1.43;;
12663;SDS011;6396;58.490;15.528;2023-06-01T14:17:44;3.07;;;1.23;;
12663;SDS011;6396;58.490;15.528;2023-06-01T14:20:12;1.37;;;1.27;;
12663;SDS011;6396;58.490;15.528;2023-06-01T14:22:39;2.50;;;1.40;;
12663;SDS011;6396;58.490;15.528;2023-06-01T14:25:06;1.53;;;1.37;;
12663;SDS011;6396;58.490;15.528;2023-06-01T14:27:33;2.87;;;1.33;;
12663;SDS011;6396;58.490;15.528;2023-06-01T14:30:02;1.60;;;1.33;;
12663;SDS011;6396;58.490;15.528;2023-06-01T14:32:30;1.67;;;1.40;;
12663;SDS011;6396;58.490;15.528;2023-06-01T14:34:56;1.33;;;1.20;;
12663;SDS011;6396;58.490;15.528;2023-06-01T14:37:25;1.57;;;1.47;;
12663;SDS011;6396;58.490;15.528;2023-06-01T14:39:51;1.30;;;1.20;;
12663;SDS011;6396;58.490;15.528;2023-06-01T14:42:19;1.63;;;1.40;;
12663;SDS011;6396;58.490;15.528;2023-06-01T14:44:46;2.07;;;1.30;;
12663;SDS011;6396;58.490;15.528;2023-06-01T14:47:13;2.60;;;1.60;;
12663;SDS011;6396;58.490;15.528;2023-06-01T14:49:40;1.93;;;1.20;;
12663;SDS011;6396;58.490;15.528;2023-06-01T14:52:07;1.50;;;1.40;;
12663;SDS011;6396;58.490;15.528;2023-06-01T14:54:35;2.73;;;1.43;;
12663;SDS011;6396;58.490;15.528;2023-06-01T14:57:02;1.93;;;1.37;;
12663;SDS011;6396;58.490;15.528;2023-06-01T14:59:29;2.27;;;1.40;;
12663;SDS011;6396;58.490;15.528;2023-06-01T15:01:58;3.50;;;1.40;;
12663;SDS011;6396;58.490;15.528;2023-06-01T15:04:26;1.63;;;1.27;;
12663;SDS011;6396;58.490;15.528;2023-06-01T15:06:53;1.53;;;1.43;;
12663;SDS011;6396;58.490;15.528;2023-06-01T15:09:20;2.07;;;1.60;;
12663;SDS011;6396;58.490;15.528;2023-06-01T15:11:48;2.43;;;1.80;;
12663;SDS011;6396;58.490;15.528;2023-06-01T15:14:15;2.07;;;1.50;;
12663;SDS011;6396;58.490;15.528;2023-06-01T15:16:41;3.10;;;1.40;;
12663;SDS011;6396;58.490;15.528;2023-06-01T15:19:08;1.57;;;1.40;;